Time;durP1;ratioP1;P1;durP2;ratioP2;P2;SDS_P1;SDS_P2;PMS_P1;PMS_P2;Temp;Humidity;BMP_temperature;BMP_pressure;BME280_temperature;BME280_humidity;BME280_pressure;Samples;Min_cycle;Max_cycle;Signal;HPM_P1;HPM_P2
2021/01/13 00:00:35;;;;;;;35.60;4.20;;;1.40;99.90;;;;;;4972806;28;20019;-77
2021/01/13 00:03:01;;;;;;;19.30;3.08;;;1.50;99.90;;;;;;4971580;28;20031;-77
2021/01/13 00:05:27;;;;;;;25.55;3.30;;;1.60;99.90;;;;;;4972545;28;20070;-78
2021/01/13 00:07:52;;;;;;;25.52;2.88;;;1.70;99.90;;;;;;4969895;28;20039;-78
2021/01/13 00:10:19;;;;;;;27.80;2.35;;;1.70;99.90;;;;;;4971572;28;20022;-77
2021/01/13 00:12:44;;;;;;;17.85;2.83;;;1.80;99.90;;;;;;4970623;28;20522;-77
2021/01/13 00:15:10;;;;;;;29.63;2.72;;;1.90;99.90;;;;;;4969031;28;20031;-78
2021/01/13 00:17:36;;;;;;;25.13;2.55;;;2.00;99.90;;;;;;4974873;28;20031;-77
2021/01/13 00:20:06;;;;;;;13.60;1.98;;;2.20;99.90;;;;;;4976693;28;20046;-77
2021/01/13 00:22:32;;;;;;;10.40;1.20;;;2.40;99.90;;;;;;4976655;28;20070;-78
2021/01/13 00:24:58;;;;;;;9.43;1.33;;;2.40;99.90;;;;;;4972315;28;20058;-78
2021/01/13 00:27:25;;;;;;;24.90;2.22;;;2.00;99.90;;;;;;4975800;28;20450;-77
2021/01/13 00:29:52;;;;;;;17.17;1.67;;;1.70;99.90;;;;;;4969469;28;20064;-77
2021/01/13 00:32:18;;;;;;;8.70;1.98;;;1.60;99.90;;;;;;4957117;28;20066;-77
2021/01/13 00:34:44;;;;;;;12.75;1.77;;;1.60;99.90;;;;;;4967344;28;20011;-77
2021/01/13 00:37:11;;;;;;;19.77;1.98;;;1.60;99.90;;;;;;4976409;28;20030;-77
2021/01/13 00:39:37;;;;;;;19.15;1.75;;;1.60;99.90;;;;;;4975042;28;20038;-77
2021/01/13 00:42:03;;;;;;;11.32;1.50;;;1.60;99.90;;;;;;4976397;28;20031;-77
2021/01/13 00:44:29;;;;;;;10.07;1.40;;;1.60;99.90;;;;;;4974405;28;20034;-77
2021/01/13 00:46:54;;;;;;;9.05;1.15;;;1.60;99.90;;;;;;4976180;28;20042;-77
2021/01/13 00:49:20;;;;;;;11.90;2.03;;;1.60;99.90;;;;;;4976077;28;20023;-77
2021/01/13 00:51:45;;;;;;;12.75;1.80;;;1.50;99.90;;;;;;4975979;28;20062;-77
2021/01/13 00:54:12;;;;;;;18.33;1.63;;;1.60;99.90;;;;;;4975042;28;20027;-77
2021/01/13 00:56:43;;;;;;;14.95;1.83;;;1.60;99.90;;;;;;4974034;28;20023;-78
2021/01/13 00:59:10;;;;;;;22.95;2.55;;;1.60;99.90;;;;;;4973033;28;20022;-77
2021/01/13 01:01:37;;;;;;;15.63;1.58;;;1.70;99.90;;;;;;4975851;28;20105;-78
2021/01/13 01:04:04;;;;;;;15.55;2.00;;;1.70;99.90;;;;;;4974455;28;20193;-77
2021/01/13 01:06:30;;;;;;;19.00;2.80;;;1.70;99.90;;;;;;4975950;28;20057;-77
2021/01/13 01:08:56;;;;;;;13.98;1.95;;;1.70;99.90;;;;;;4973598;28;20039;-77
2021/01/13 01:11:26;;;;;;;20.13;2.53;;;1.70;99.90;;;;;;4990493;28;20031;-78
2021/01/13 01:13:51;;;;;;;19.10;2.08;;;1.70;99.90;;;;;;4973308;28;20126;-77
2021/01/13 01:16:17;;;;;;;23.60;2.85;;;1.70;99.90;;;;;;4974436;28;20072;-78
2021/01/13 01:18:43;;;;;;;21.98;2.60;;;1.80;99.90;;;;;;4975731;28;20399;-77
2021/01/13 01:21:09;;;;;;;18.85;2.50;;;1.80;99.90;;;;;;4971930;28;20075;-77
2021/01/13 01:23:38;;;;;;;29.80;2.55;;;1.60;99.90;;;;;;4974861;28;20034;-77
2021/01/13 01:26:05;;;;;;;24.02;2.80;;;1.60;99.90;;;;;;4973944;28;20058;-77
2021/01/13 01:28:30;;;;;;;19.10;2.28;;;1.60;99.90;;;;;;4971702;28;20026;-77
2021/01/13 01:30:56;;;;;;;12.25;2.05;;;1.50;99.90;;;;;;4974043;28;20023;-77
2021/01/13 01:33:22;;;;;;;26.38;2.88;;;1.50;99.90;;;;;;4975502;28;20023;-77
2021/01/13 01:35:47;;;;;;;28.00;3.88;;;1.60;99.90;;;;;;4975039;28;20487;-78
2021/01/13 01:38:13;;;;;;;27.33;2.85;;;1.60;99.90;;;;;;4973196;28;20034;-77
2021/01/13 01:40:39;;;;;;;44.83;4.90;;;1.50;99.90;;;;;;4969967;28;20031;-77
2021/01/13 01:43:04;;;;;;;51.13;4.78;;;1.50;99.90;;;;;;4966165;28;20030;-78
2021/01/13 01:45:31;;;;;;;32.25;3.55;;;1.50;99.90;;;;;;4974856;28;20030;-77
2021/01/13 01:48:02;;;;;;;21.35;2.85;;;1.60;99.90;;;;;;4975066;28;20056;-78
2021/01/13 01:50:36;;;;;;;30.88;3.25;;;1.60;99.90;;;;;;4970564;28;20030;-78
2021/01/13 01:53:17;;;;;;;18.60;2.95;;;1.50;99.90;;;;;;4971939;28;20503;-78
2021/01/13 01:55:50;;;;;;;46.47;4.13;;;1.50;99.90;;;;;;4972843;28;20035;-78
2021/01/13 01:58:27;;;;;;;33.70;4.45;;;1.50;99.90;;;;;;4972247;28;20031;-78
2021/01/13 02:00:58;;;;;;;39.75;3.92;;;1.50;99.90;;;;;;4989059;28;20499;-78
2021/01/13 02:03:47;;;;;;;28.17;3.67;;;1.60;99.90;;;;;;4973566;28;20558;-78
2021/01/13 02:06:17;;;;;;;54.10;4.60;;;1.60;99.90;;;;;;4973586;28;20118;-77
2021/01/13 02:08:44;;;;;;;33.80;3.30;;;1.70;99.90;;;;;;4971423;28;20039;-78
2021/01/13 02:11:18;;;;;;;37.85;4.43;;;1.70;99.90;;;;;;4973021;28;20033;-78
2021/01/13 02:13:45;;;;;;;23.45;2.97;;;1.70;99.90;;;;;;4971222;28;20546;-77
2021/01/13 02:16:13;;;;;;;34.60;3.58;;;1.80;99.90;;;;;;4974234;28;20121;-78
2021/01/13 02:18:44;;;;;;;19.17;2.33;;;1.80;99.90;;;;;;4974627;28;20030;-78
2021/01/13 02:21:20;;;;;;;37.30;2.58;;;1.80;99.90;;;;;;4973728;28;20067;-78
2021/01/13 02:23:46;;;;;;;18.75;2.17;;;1.90;99.90;;;;;;4989388;28;20026;-77
2021/01/13 02:26:33;;;;;;;17.35;2.42;;;1.90;99.90;;;;;;4971790;28;20042;-78
2021/01/13 02:29:46;;;;;;;22.55;1.95;;;2.00;99.90;;;;;;4968421;28;20492;-78
2021/01/13 02:32:24;;;;;;;16.92;3.67;;;2.00;99.90;;;;;;4929264;29;20024;-77
2021/01/13 02:34:59;;;;;;;25.70;2.55;;;2.10;99.90;;;;;;4958032;28;20594;-77
2021/01/13 02:37:39;;;;;;;29.95;2.60;;;2.10;99.90;;;;;;4974425;28;20023;-78
2021/01/13 02:40:12;;;;;;;26.92;2.92;;;2.20;99.90;;;;;;4972177;28;20034;-77
2021/01/13 02:42:46;;;;;;;19.70;2.17;;;2.30;99.90;;;;;;4971189;28;20485;-77
2021/01/13 02:45:16;;;;;;;29.95;2.95;;;2.20;99.90;;;;;;4967982;28;20138;-78
2021/01/13 02:48:00;;;;;;;31.17;2.92;;;2.20;99.90;;;;;;4974153;28;20119;-77
2021/01/13 02:50:29;;;;;;;38.15;3.72;;;2.10;99.90;;;;;;4973987;28;20019;-78
2021/01/13 02:53:16;;;;;;;24.70;3.88;;;2.10;99.90;;;;;;4970590;28;20090;-78
2021/01/13 02:56:01;;;;;;;28.92;3.13;;;2.00;99.90;;;;;;4968724;28;20047;-78
2021/01/13 02:58:36;;;;;;;17.75;2.40;;;1.90;99.90;;;;;;4965110;28;20071;-78
2021/01/13 03:01:04;;;;;;;29.20;5.15;;;1.90;99.90;;;;;;4963233;28;20027;-77
2021/01/13 03:03:32;;;;;;;20.45;3.20;;;1.90;99.90;;;;;;4974147;28;20086;-77
2021/01/13 03:06:08;;;;;;;22.10;2.40;;;1.90;99.90;;;;;;4973540;28;20027;-78
2021/01/13 03:08:47;;;;;;;20.50;2.92;;;1.90;99.90;;;;;;4953169;28;20035;-78
2021/01/13 03:11:18;;;;;;;20.25;3.15;;;1.80;99.90;;;;;;4953323;28;20035;-77
2021/01/13 03:13:44;;;;;;;24.02;2.00;;;1.90;99.90;;;;;;4970066;28;20110;-77
2021/01/13 03:16:12;;;;;;;14.00;1.75;;;1.80;99.90;;;;;;4974100;28;20033;-77
2021/01/13 03:18:56;;;;;;;17.58;2.22;;;1.80;99.90;;;;;;4973790;28;20065;-78
2021/01/13 03:21:27;;;;;;;34.30;2.10;;;1.80;99.90;;;;;;4956163;28;20030;-78
2021/01/13 03:24:11;;;;;;;12.90;2.45;;;1.80;99.90;;;;;;4969504;28;20427;-77
2021/01/13 03:26:44;;;;;;;27.83;3.38;;;1.70;99.90;;;;;;4973008;28;20034;-77
2021/01/13 03:29:18;;;;;;;28.52;3.40;;;1.70;99.90;;;;;;4970374;28;20031;-78
2021/01/13 03:32:16;;;;;;;20.60;2.25;;;1.70;99.90;;;;;;4972032;28;20062;-77
2021/01/13 03:35:04;;;;;;;21.08;2.15;;;1.80;99.90;;;;;;4968871;28;20495;-78
2021/01/13 03:37:48;;;;;;;21.60;2.42;;;1.80;99.90;;;;;;4973338;28;20105;-78
2021/01/13 03:40:15;;;;;;;35.53;3.10;;;1.80;99.90;;;;;;4968259;28;20032;-77
2021/01/13 03:42:50;;;;;;;23.13;2.80;;;1.80;99.90;;;;;;4962219;28;20031;-78
2021/01/13 03:45:33;;;;;;;35.25;3.35;;;1.90;99.90;;;;;;4970712;28;20030;-77
2021/01/13 03:48:05;;;;;;;43.45;3.15;;;2.00;99.90;;;;;;4973155;28;20031;-77
2021/01/13 03:50:41;;;;;;;31.38;3.30;;;2.00;99.90;;;;;;4972997;28;20085;-78
2021/01/13 03:53:09;;;;;;;42.88;4.35;;;2.00;99.90;;;;;;4973096;28;20035;-78
2021/01/13 03:55:37;;;;;;;31.58;3.20;;;2.00;99.90;;;;;;4969914;28;20073;-78
2021/01/13 03:58:09;;;;;;;44.55;3.58;;;2.00;99.90;;;;;;4970918;28;20061;-78
2021/01/13 04:01:01;;;;;;;27.58;3.78;;;2.00;99.90;;;;;;4969381;28;20027;-78
2021/01/13 04:03:31;;;;;;;34.63;3.15;;;2.00;99.90;;;;;;4972985;28;20054;-78
2021/01/13 04:06:10;;;;;;;37.55;5.05;;;2.10;99.90;;;;;;4972667;28;20114;-78
2021/01/13 04:08:44;;;;;;;28.42;2.97;;;2.10;99.90;;;;;;4953387;28;20027;-78
2021/01/13 04:11:19;;;;;;;40.50;4.35;;;2.00;99.90;;;;;;4955212;28;20035;-78
2021/01/13 04:13:52;;;;;;;23.33;3.17;;;2.10;99.90;;;;;;4962279;28;20031;-78
2021/01/13 04:16:22;;;;;;;24.27;3.80;;;2.20;99.90;;;;;;4972655;28;20101;-78
2021/01/13 04:18:50;;;;;;;40.70;3.85;;;2.30;99.90;;;;;;4971621;28;20038;-78
2021/01/13 04:21:21;;;;;;;40.85;3.88;;;2.30;99.90;;;;;;4971794;28;20030;-78
2021/01/13 04:23:48;;;;;;;37.72;4.30;;;2.40;99.90;;;;;;4970577;28;20050;-78
2021/01/13 04:26:14;;;;;;;27.55;3.75;;;2.40;99.90;;;;;;4971469;28;20572;-78
2021/01/13 04:28:41;;;;;;;28.05;3.17;;;2.50;99.90;;;;;;4969845;28;20558;-77
2021/01/13 04:31:08;;;;;;;33.38;3.08;;;2.60;99.90;;;;;;4972622;28;20026;-78
2021/01/13 04:33:34;;;;;;;48.20;4.60;;;2.70;99.90;;;;;;4972506;28;20037;-78
2021/01/13 04:36:00;;;;;;;30.08;4.05;;;2.70;99.90;;;;;;4968120;28;20062;-78
2021/01/13 04:38:29;;;;;;;22.08;3.25;;;2.70;99.90;;;;;;4971462;28;20023;-78
2021/01/13 04:41:05;;;;;;;14.82;2.30;;;2.60;99.90;;;;;;4954477;28;20037;-78
2021/01/13 04:43:48;;;;;;;43.78;4.93;;;2.50;99.90;;;;;;4959971;28;20034;-78
2021/01/13 04:46:32;;;;;;;28.42;2.92;;;2.60;99.90;;;;;;4963600;28;20027;-78
2021/01/13 04:49:12;;;;;;;33.38;3.35;;;2.60;99.90;;;;;;4972452;28;20027;-78
2021/01/13 04:51:40;;;;;;;37.75;3.38;;;2.60;99.90;;;;;;4957274;28;20069;-77
2021/01/13 04:54:14;;;;;;;20.23;3.13;;;2.60;99.90;;;;;;4971733;28;20546;-78
2021/01/13 04:57:04;;;;;;;32.65;4.95;;;2.60;99.90;;;;;;4966555;28;20046;-78
2021/01/13 04:59:30;;;;;;;23.70;4.43;;;2.60;99.90;;;;;;4967951;28;20031;-78
2021/01/13 05:02:10;;;;;;;34.10;4.32;;;2.70;99.90;;;;;;4973006;28;20137;-78
2021/01/13 05:05:04;;;;;;;19.05;4.65;;;2.80;99.90;;;;;;4971296;28;20023;-78
2021/01/13 05:07:33;;;;;;;21.35;3.33;;;2.40;99.90;;;;;;4965983;28;20033;-79
2021/01/13 05:10:15;;;;;;;23.10;6.70;;;2.20;99.90;;;;;;4974539;28;20097;-79
2021/01/13 05:12:53;;;;;;;16.50;4.13;;;2.00;99.90;;;;;;4973801;28;20414;-78
2021/01/13 05:15:27;;;;;;;15.43;1.90;;;1.90;99.90;;;;;;4969510;28;20022;-78
2021/01/13 05:18:01;;;;;;;17.75;2.67;;;1.80;99.90;;;;;;4975949;28;20195;-78
2021/01/13 05:20:30;;;;;;;21.13;9.35;;;1.70;99.90;;;;;;4975463;28;20510;-78
2021/01/13 05:22:58;;;;;;;13.68;2.17;;;1.70;99.90;;;;;;4961724;28;20039;-78
2021/01/13 05:25:51;;;;;;;20.58;1.90;;;1.70;99.90;;;;;;4974827;28;20050;-79
2021/01/13 05:28:23;;;;;;;23.40;2.70;;;1.70;99.90;;;;;;4970290;28;20069;-78
2021/01/13 05:30:56;;;;;;;16.90;2.22;;;1.60;99.90;;;;;;4975453;28;20262;-79
2021/01/13 05:33:23;;;;;;;18.17;2.17;;;1.70;99.90;;;;;;4975535;28;20404;-78
2021/01/13 05:35:54;;;;;;;15.50;1.48;;;1.60;99.90;;;;;;4970750;28;20794;-78
2021/01/13 05:38:38;;;;;;;23.52;2.17;;;1.50;99.90;;;;;;4972166;28;20391;-78
2021/01/13 05:41:14;;;;;;;12.98;2.33;;;1.60;99.90;;;;;;4972878;28;20023;-78
2021/01/13 05:43:48;;;;;;;17.95;1.95;;;1.70;99.90;;;;;;4970875;28;20070;-78
2021/01/13 05:46:16;;;;;;;12.13;1.60;;;1.70;99.90;;;;;;4974138;28;20027;-79
2021/01/13 05:48:44;;;;;;;16.42;3.53;;;1.80;99.90;;;;;;4975381;28;20129;-78
2021/01/13 05:51:10;;;;;;;22.80;2.35;;;1.90;99.90;;;;;;4975606;28;20023;-78
2021/01/13 05:53:37;;;;;;;31.30;2.50;;;2.00;99.90;;;;;;4972966;28;20023;-77
2021/01/13 05:56:03;;;;;;;32.45;4.00;;;2.10;99.90;;;;;;4974966;28;20515;-77
2021/01/13 05:58:30;;;;;;;57.53;15.57;;;1.90;99.90;;;;;;4972261;28;20023;-77
2021/01/13 06:00:58;;;;;;;37.65;8.68;;;1.80;99.90;;;;;;4964100;28;20031;-77
2021/01/13 06:03:29;;;;;;;25.25;2.72;;;1.80;99.90;;;;;;4973814;28;20027;-77
2021/01/13 06:05:59;;;;;;;24.60;2.30;;;1.80;99.90;;;;;;4970210;28;20031;-76
2021/01/13 06:08:31;;;;;;;22.98;3.47;;;1.90;99.90;;;;;;4973946;28;20019;-77
2021/01/13 06:11:00;;;;;;;21.73;2.08;;;1.80;99.90;;;;;;4974483;28;20031;-77
2021/01/13 06:13:31;;;;;;;11.38;1.48;;;1.70;99.90;;;;;;4970843;28;20166;-77
2021/01/13 06:16:03;;;;;;;24.33;2.58;;;1.70;99.90;;;;;;4964812;28;20022;-77
2021/01/13 06:18:30;;;;;;;11.77;2.35;;;1.70;99.90;;;;;;4974825;28;20038;-77
2021/01/13 06:20:57;;;;;;;14.77;2.15;;;1.80;99.90;;;;;;4974531;28;20029;-77
2021/01/13 06:23:27;;;;;;;20.80;2.05;;;1.90;99.90;;;;;;4972615;28;20041;-77
2021/01/13 06:25:54;;;;;;;16.92;2.38;;;1.90;99.90;;;;;;4971852;28;20039;-77
2021/01/13 06:28:27;;;;;;;21.65;2.78;;;1.90;99.90;;;;;;4972714;28;20395;-77
2021/01/13 06:31:05;;;;;;;34.47;3.47;;;2.00;99.90;;;;;;4972723;28;20391;-77
2021/01/13 06:33:36;;;;;;;41.28;2.75;;;2.00;99.90;;;;;;4974470;28;20042;-77
2021/01/13 06:36:26;;;;;;;27.40;4.32;;;2.10;99.90;;;;;;4969663;28;20070;-77
2021/01/13 06:38:56;;;;;;;26.17;2.85;;;2.10;99.90;;;;;;4964828;28;20392;-77
2021/01/13 06:41:22;;;;;;;31.92;3.63;;;2.20;99.90;;;;;;4973173;28;20098;-77
2021/01/13 06:44:06;;;;;;;30.10;2.95;;;2.30;99.90;;;;;;4969953;28;20023;-77
2021/01/13 06:46:33;;;;;;;30.95;3.47;;;2.30;99.90;;;;;;4974167;28;20031;-77
2021/01/13 06:49:19;;;;;;;25.00;4.70;;;2.30;99.90;;;;;;4973926;28;20039;-77
2021/01/13 06:51:47;;;;;;;24.65;3.25;;;2.30;99.90;;;;;;4960030;28;20394;-78
2021/01/13 06:54:14;;;;;;;54.35;5.03;;;2.40;99.90;;;;;;4972164;28;20027;-77
2021/01/13 06:56:54;;;;;;;34.30;4.60;;;2.40;99.90;;;;;;4974043;28;20019;-77
2021/01/13 06:59:25;;;;;;;28.27;4.43;;;2.40;99.90;;;;;;4968468;28;20416;-78
2021/01/13 07:01:55;;;;;;;44.88;5.22;;;2.40;99.90;;;;;;4969462;28;20054;-78
2021/01/13 07:04:22;;;;;;;25.02;3.50;;;2.40;99.90;;;;;;4972313;28;20117;-78
2021/01/13 07:06:58;;;;;;;26.23;5.20;;;2.60;99.90;;;;;;4973549;28;20116;-78
2021/01/13 07:09:44;;;;;;;43.58;4.50;;;2.60;99.90;;;;;;4970159;28;20023;-78
2021/01/13 07:12:16;;;;;;;21.25;2.85;;;2.60;99.90;;;;;;4972911;28;20085;-78
2021/01/13 07:14:44;;;;;;;28.88;3.67;;;2.50;99.90;;;;;;4970792;28;20178;-78
2021/01/13 07:17:16;;;;;;;33.00;3.97;;;2.40;99.90;;;;;;4973572;28;20018;-77
2021/01/13 07:19:56;;;;;;;39.33;3.88;;;2.40;99.90;;;;;;4973622;28;20023;-78
2021/01/13 07:22:26;;;;;;;29.85;4.65;;;2.40;99.90;;;;;;4972838;28;20113;-78
2021/01/13 07:24:53;;;;;;;37.38;4.13;;;2.30;99.90;;;;;;4970808;28;20034;-78
2021/01/13 07:27:20;;;;;;;28.38;4.32;;;2.30;99.90;;;;;;4972820;28;20603;-78
2021/01/13 07:29:47;;;;;;;52.40;5.68;;;2.30;99.90;;;;;;4967585;28;20031;-78
2021/01/13 07:32:13;;;;;;;31.58;4.53;;;2.40;99.90;;;;;;4971942;28;20037;-78
2021/01/13 07:34:42;;;;;;;36.35;3.92;;;2.40;99.90;;;;;;4973032;28;20019;-78
2021/01/13 07:37:08;;;;;;;26.17;3.33;;;2.40;99.90;;;;;;4973387;28;20027;-78
2021/01/13 07:39:58;;;;;;;32.00;3.75;;;2.40;99.90;;;;;;4967366;28;20038;-78
2021/01/13 07:42:37;;;;;;;34.90;3.75;;;2.40;99.90;;;;;;4968516;28;20042;-78
2021/01/13 07:45:20;;;;;;;28.35;5.72;;;2.50;99.90;;;;;;4971180;28;20043;-78
2021/01/13 07:48:03;;;;;;;40.75;4.32;;;2.50;99.90;;;;;;4973620;28;20451;-78
2021/01/13 07:50:32;;;;;;;33.75;5.03;;;2.60;99.90;;;;;;4968673;28;20034;-78
2021/01/13 07:53:03;;;;;;;41.42;4.03;;;2.70;99.90;;;;;;4968792;28;20031;-78
2021/01/13 07:55:30;;;;;;;52.55;7.28;;;2.80;99.90;;;;;;4972270;28;20031;-77
2021/01/13 07:57:58;;;;;;;52.85;6.13;;;2.70;99.90;;;;;;4972434;28;20082;-77
2021/01/13 08:00:37;;;;;;;31.00;6.18;;;2.80;99.90;;;;;;4972477;28;20456;-77
2021/01/13 08:03:17;;;;;;;59.67;7.20;;;2.90;99.90;;;;;;4971135;28;20049;-77
2021/01/13 08:06:07;;;;;;;66.45;5.68;;;2.90;99.90;;;;;;4971322;28;20035;-77
2021/01/13 08:08:53;;;;;;;50.15;4.93;;;3.10;99.90;;;;;;4972696;28;20207;-78
2021/01/13 08:11:37;;;;;;;49.47;6.80;;;3.00;99.90;;;;;;4954882;28;20031;-78
2021/01/13 08:14:46;;;;;;;32.55;3.95;;;3.10;99.90;;;;;;4970930;28;20046;-78
2021/01/13 08:17:21;;;;;;;36.80;6.55;;;3.10;99.90;;;;;;4971661;28;20086;-77
2021/01/13 08:19:47;;;;;;;32.03;5.90;;;3.10;99.90;;;;;;4972826;28;20030;-78
2021/01/13 08:22:15;;;;;;;35.97;4.32;;;3.20;99.90;;;;;;4970912;28;20054;-77
2021/01/13 08:24:43;;;;;;;37.15;6.05;;;3.20;99.90;;;;;;4971751;28;20140;-77
2021/01/13 08:27:10;;;;;;;41.90;5.18;;;3.30;99.90;;;;;;4971708;28;20023;-77
2021/01/13 08:29:38;;;;;;;35.80;5.47;;;3.30;99.90;;;;;;4968890;28;20031;-77
2021/01/13 08:32:12;;;;;;;34.10;4.78;;;3.40;99.90;;;;;;4972599;28;20015;-78
2021/01/13 08:34:44;;;;;;;;;;;3.50;99.90;;;;;;4972723;28;20015;-78
2021/01/13 08:37:10;;;;;;;44.72;5.13;;;3.60;99.90;;;;;;4969050;28;19958;-77
2021/01/13 08:39:38;;;;;;;47.72;6.15;;;3.60;99.90;;;;;;4962035;28;20058;-78
2021/01/13 08:42:26;;;;;;;55.85;7.07;;;3.60;99.90;;;;;;4976455;28;20069;-78
2021/01/13 08:44:54;;;;;;;53.35;5.55;;;3.70;99.90;;;;;;4970437;28;20078;-80
2021/01/13 08:47:21;;;;;;;35.35;4.95;;;3.70;99.90;;;;;;4970797;28;20023;-78
2021/01/13 08:49:48;;;;;;;37.83;5.88;;;3.80;99.90;;;;;;4990959;28;20034;-79
2021/01/13 08:52:15;;;;;;;35.88;5.75;;;3.90;99.90;;;;;;4975043;28;20026;-79
2021/01/13 08:54:56;;;;;;;42.03;6.10;;;3.90;99.90;;;;;;4973276;28;20019;-79
2021/01/13 08:57:23;;;;;;;31.98;5.00;;;4.00;99.90;;;;;;4974779;28;20037;-78
2021/01/13 08:59:49;;;;;;;59.70;5.55;;;4.10;99.90;;;;;;4975880;28;20495;-79
2021/01/13 09:02:16;;;;;;;39.55;5.35;;;4.10;99.90;;;;;;4975885;28;20050;-79
2021/01/13 09:04:52;;;;;;;58.33;6.57;;;4.10;99.90;;;;;;4975568;28;20035;-79
2021/01/13 09:07:24;;;;;;;45.95;5.65;;;4.20;99.90;;;;;;4975115;28;20034;-79
2021/01/13 09:10:01;;;;;;;28.35;4.20;;;4.20;99.90;;;;;;4975628;28;20031;-78
2021/01/13 09:12:32;;;;;;;43.67;6.18;;;4.30;99.90;;;;;;4975615;28;20030;-79
2021/01/13 09:15:06;;;;;;;42.17;5.15;;;4.30;99.90;;;;;;4970796;28;20479;-78
2021/01/13 09:17:48;;;;;;;38.53;6.10;;;4.30;99.90;;;;;;4956561;28;20556;-79
2021/01/13 09:20:17;;;;;;;56.00;5.95;;;4.30;99.90;;;;;;4955145;29;20027;-78
2021/01/13 09:22:43;;;;;;;37.30;7.53;;;4.10;99.90;;;;;;4956369;28;20106;-78
2021/01/13 09:25:23;;;;;;;46.00;6.90;;;4.00;99.90;;;;;;4970349;28;20542;-78
2021/01/13 09:27:54;;;;;;;34.08;4.90;;;3.80;99.90;;;;;;4975467;28;20038;-78
2021/01/13 09:30:41;;;;;;;37.28;5.80;;;3.70;99.90;;;;;;4975335;28;20086;-77
2021/01/13 09:33:17;;;;;;;49.97;7.35;;;3.60;99.90;;;;;;4975078;28;20491;-78
2021/01/13 09:35:48;;;;;;;43.90;5.90;;;3.70;99.90;;;;;;4974840;28;20472;-78
2021/01/13 09:38:15;;;;;;;68.50;6.80;;;3.70;99.90;;;;;;4974098;28;20041;-77
2021/01/13 09:41:03;;;;;;;81.93;11.52;;;3.70;99.90;;;;;;4973665;28;20450;-76
2021/01/13 09:43:41;;;;;;;61.85;8.07;;;3.80;99.90;;;;;;4975165;28;20114;-75
2021/01/13 09:46:26;;;;;;;83.50;7.65;;;3.90;99.90;;;;;;4975190;28;20038;-76
2021/01/13 09:49:00;;;;;;;59.83;7.13;;;3.90;99.90;;;;;;4973929;28;20106;-76
2021/01/13 09:51:27;;;;;;;32.20;4.95;;;3.90;99.90;;;;;;4975071;28;20113;-76
2021/01/13 09:53:54;;;;;;;18.98;3.03;;;3.30;99.90;;;;;;4974650;28;20038;-75
2021/01/13 09:56:21;;;;;;;21.25;3.00;;;2.60;99.90;;;;;;4969043;28;20027;-75
2021/01/13 09:58:48;;;;;;;15.98;2.85;;;2.40;99.90;;;;;;4970045;28;20140;-76
2021/01/13 10:01:19;;;;;;;42.55;3.28;;;2.30;99.90;;;;;;4955438;28;20543;-76
2021/01/13 10:03:47;;;;;;;48.40;4.20;;;2.40;99.90;;;;;;4954787;28;20047;-76
2021/01/13 10:06:21;;;;;;;227.68;74.47;;;2.50;99.90;;;;;;4957719;28;20550;-77
2021/01/13 10:08:50;;;;;;;193.07;50.85;;;2.70;99.90;;;;;;4955440;29;20059;-76
2021/01/13 10:11:18;;;;;;;69.82;11.68;;;2.80;99.90;;;;;;4955238;28;20027;-76
2021/01/13 10:13:45;;;;;;;65.80;11.32;;;2.80;99.90;;;;;;4960548;28;20042;-76
2021/01/13 10:16:13;;;;;;;62.78;5.70;;;2.90;99.90;;;;;;4974742;28;20023;-76
2021/01/13 10:19:11;;;;;;;63.70;12.23;;;2.90;99.90;;;;;;4974472;28;20030;-75
2021/01/13 10:21:39;;;;;;;35.35;7.75;;;3.00;99.90;;;;;;4942123;28;20633;-76
2021/01/13 10:24:09;;;;;;;70.85;13.60;;;3.00;99.90;;;;;;4973688;28;20049;-76
2021/01/13 10:26:39;;;;;;;62.42;9.73;;;3.10;99.90;;;;;;4972935;28;20034;-75
2021/01/13 10:29:11;;;;;;;80.45;15.00;;;3.10;99.90;;;;;;4989194;28;20447;-76
2021/01/13 10:31:36;;;;;;;22.33;2.08;;;3.10;99.90;;;;;;4989140;28;20122;-75
2021/01/13 10:34:03;;;;;;;13.55;2.13;;;2.90;99.90;;;;;;4988133;28;20137;-76
2021/01/13 10:36:52;;;;;;;63.47;11.90;;;2.60;99.90;;;;;;4974274;28;20102;-76
2021/01/13 10:39:22;;;;;;;64.25;14.45;;;2.40;99.90;;;;;;4973039;28;20031;-76
2021/01/13 10:41:50;;;;;;;91.13;25.48;;;2.20;99.90;;;;;;4973927;28;20054;-76
2021/01/13 10:44:19;;;;;;;176.95;44.08;;;2.20;99.90;;;;;;4973508;28;20050;-76
2021/01/13 10:46:46;;;;;;;84.03;23.75;;;2.20;99.90;;;;;;4973822;28;20054;-75
2021/01/13 10:49:25;;;;;;;37.58;10.05;;;2.20;99.90;;;;;;4974392;28;20034;-76
2021/01/13 10:51:54;;;;;;;80.05;20.38;;;2.30;99.90;;;;;;4973839;28;20030;-76
2021/01/13 10:54:22;;;;;;;60.95;15.05;;;2.40;99.90;;;;;;4972485;28;20027;-76
2021/01/13 10:56:55;;;;;;;34.65;11.07;;;2.50;99.90;;;;;;4972658;28;20584;-76
2021/01/13 10:59:22;;;;;;;16.97;3.23;;;2.50;99.90;;;;;;4973401;28;20041;-76
2021/01/13 11:01:52;;;;;;;21.35;4.88;;;2.60;99.90;;;;;;4973646;28;20027;-76
2021/01/13 11:04:28;;;;;;;33.33;5.78;;;2.60;99.90;;;;;;4972563;28;20038;-76
2021/01/13 11:07:17;;;;;;;68.55;23.20;;;2.70;99.90;;;;;;4972635;28;20487;-76
2021/01/13 11:09:48;;;;;;;54.03;15.05;;;2.70;99.90;;;;;;4973007;28;20049;-76
2021/01/13 11:12:24;;;;;;;33.75;4.68;;;2.70;99.90;;;;;;4973366;28;20034;-75
2021/01/13 11:14:51;;;;;;;47.30;8.63;;;2.70;99.90;;;;;;4973306;28;20027;-76
2021/01/13 11:17:21;;;;;;;29.08;3.80;;;2.70;99.90;;;;;;4972312;28;20029;-76
2021/01/13 11:19:57;;;;;;;16.92;4.35;;;2.80;99.90;;;;;;4973084;28;20038;-76
2021/01/13 11:22:44;;;;;;;27.65;5.63;;;2.90;99.90;;;;;;4973437;28;20041;-76
2021/01/13 11:25:17;;;;;;;37.88;3.30;;;2.90;99.90;;;;;;4973357;28;20030;-76
2021/01/13 11:27:44;;;;;;;17.88;2.65;;;3.00;99.90;;;;;;4973203;28;20261;-76
2021/01/13 11:30:13;;;;;;;52.42;6.47;;;3.00;99.90;;;;;;4968587;28;20399;-77
2021/01/13 11:32:42;;;;;;;32.67;2.75;;;3.00;99.90;;;;;;4952875;28;20054;-76
2021/01/13 11:35:08;;;;;;;55.75;5.82;;;3.00;99.90;;;;;;4953818;28;20070;-76
2021/01/13 11:37:53;;;;;;;26.70;4.15;;;3.00;99.90;;;;;;4952739;29;20054;-76
2021/01/13 11:40:32;;;;;;;39.95;4.25;;;3.00;99.90;;;;;;4969458;28;20027;-76
2021/01/13 11:43:03;;;;;;;18.50;4.18;;;3.00;99.90;;;;;;4971892;28;20045;-76
2021/01/13 11:45:45;;;;;;;38.85;4.43;;;3.10;99.90;;;;;;4972920;28;20061;-77
2021/01/13 11:48:14;;;;;;;43.05;5.30;;;3.20;99.90;;;;;;4972889;28;20029;-77
2021/01/13 11:50:46;;;;;;;36.78;4.80;;;3.30;99.90;;;;;;4971901;28;20129;-77
2021/01/13 11:53:20;;;;;;;45.70;5.00;;;3.40;99.90;;;;;;4987928;28;20023;-76
2021/01/13 11:55:46;;;;;;;;;;;3.50;99.90;;;;;;4988232;28;20033;-76
2021/01/13 11:58:16;;;;;;;41.50;6.68;;;3.70;99.90;;;;;;4972662;28;19910;-77
2021/01/13 12:00:41;;;;;;;54.83;6.22;;;3.70;99.90;;;;;;4971585;28;20558;-76
2021/01/13 12:03:09;;;;;;;86.18;22.23;;;3.70;99.90;;;;;;4973052;28;20063;-77
2021/01/13 12:05:36;;;;;;;60.13;7.07;;;3.80;99.90;;;;;;4972697;28;20034;-77
2021/01/13 12:08:07;;;;;;;56.97;8.63;;;3.80;99.90;;;;;;4972620;28;20035;-77
2021/01/13 12:10:42;;;;;;;43.65;6.55;;;3.80;99.90;;;;;;4971562;28;20030;-77
2021/01/13 12:13:16;;;;;;;51.00;7.70;;;3.70;99.90;;;;;;4975305;28;20030;-76
2021/01/13 12:15:51;;;;;;;32.67;4.68;;;3.60;99.90;;;;;;4976826;28;20055;-77
2021/01/13 12:18:26;;;;;;;33.60;6.55;;;3.50;99.90;;;;;;4975322;28;20399;-76
2021/01/13 12:20:54;;;;;;;31.02;6.68;;;3.40;99.90;;;;;;4975481;28;20058;-76
2021/01/13 12:23:31;;;;;;;29.25;4.13;;;3.30;99.90;;;;;;4976849;28;20034;-76
2021/01/13 12:26:21;;;;;;;31.95;4.32;;;3.20;99.90;;;;;;4976546;28;20034;-76
2021/01/13 12:28:51;;;;;;;30.75;5.63;;;3.10;99.90;;;;;;4976110;28;20031;-76
2021/01/13 12:31:19;;;;;;;24.80;3.05;;;3.10;99.90;;;;;;4976639;28;20023;-76
2021/01/13 12:33:55;;;;;;;15.50;2.88;;;3.00;99.90;;;;;;4976451;28;20372;-76
2021/01/13 12:36:24;;;;;;;16.92;3.08;;;2.90;99.90;;;;;;4976677;28;20626;-77
2021/01/13 12:38:51;;;;;;;22.05;3.90;;;3.00;99.90;;;;;;4991045;28;20134;-76
2021/01/13 12:41:24;;;;;;;21.52;3.97;;;3.10;99.90;;;;;;4976215;28;20754;-77
2021/01/13 12:43:50;;;;;;;17.77;3.28;;;3.20;99.90;;;;;;4971612;28;20070;-77
2021/01/13 12:46:27;;;;;;;27.23;5.07;;;3.40;99.90;;;;;;4956998;29;20479;-77
2021/01/13 12:48:52;;;;;;;20.23;3.00;;;3.50;99.90;;;;;;4956846;29;20059;-77
2021/01/13 12:51:18;;;;;;;18.17;5.00;;;3.60;99.90;;;;;;4955527;29;20514;-77
2021/01/13 12:53:44;;;;;;;50.38;10.48;;;3.70;99.90;;;;;;4974946;28;20030;-78
2021/01/13 12:56:22;;;;;;;29.15;6.28;;;3.70;99.90;;;;;;4974958;28;20051;-78
2021/01/13 12:58:48;;;;;;;31.27;8.30;;;3.70;99.90;;;;;;4975858;28;20051;-78
2021/01/13 13:01:13;;;;;;;21.92;6.30;;;3.70;99.90;;;;;;4976100;28;20066;-78
2021/01/13 13:03:39;;;;;;;37.47;11.45;;;3.90;99.90;;;;;;4976004;28;20030;-78
2021/01/13 13:06:06;;;;;;;27.92;8.55;;;3.90;99.90;;;;;;4974585;28;20031;-78
2021/01/13 13:08:32;;;;;;;8.80;2.85;;;3.90;99.90;;;;;;4975521;28;20037;-78
2021/01/13 13:10:57;;;;;;;9.07;3.38;;;3.80;99.90;;;;;;4974526;28;20106;-78
2021/01/13 13:13:23;;;;;;;7.35;3.05;;;3.50;99.90;;;;;;4974540;28;20027;-78